createdAt,value
2023-03-18T00:01:38.239Z,10.70
2023-03-18T00:04:06.272Z,9.53
2023-03-18T00:06:36.431Z,10.90
2023-03-18T00:09:05.572Z,10.60
2023-03-18T00:11:33.083Z,10.38
2023-03-18T00:14:00.647Z,11.38
2023-03-18T00:16:28.802Z,10.35
2023-03-18T00:18:56.650Z,10.43
2023-03-18T00:21:24.762Z,10.65
2023-03-18T00:23:53.986Z,10.85
2023-03-18T00:26:23.220Z,10.63
2023-03-18T00:28:50.850Z,10.72
2023-03-18T00:31:19.534Z,10.38
2023-03-18T00:33:47.411Z,9.88
2023-03-18T00:36:15.448Z,10.05
2023-03-18T00:38:46.115Z,9.68
2023-03-18T00:41:16.468Z,10.28
2023-03-18T00:43:47.543Z,10.05
2023-03-18T00:46:17.866Z,10.85
2023-03-18T00:48:46.505Z,10.30
2023-03-18T00:51:17.153Z,9.65
2023-03-18T00:56:32.482Z,10.23
2023-03-18T00:59:03.148Z,10.75
2023-03-18T01:01:31.591Z,10.58
2023-03-18T01:04:01.091Z,10.00
2023-03-18T01:06:32.897Z,10.32
2023-03-18T01:09:01.745Z,9.65
2023-03-18T01:11:29.966Z,10.25
2023-03-18T01:13:57.478Z,9.95
2023-03-18T01:16:25.989Z,9.10
2023-03-18T01:18:56.855Z,9.90
2023-03-18T01:21:24.681Z,10.60
2023-03-18T01:23:54.598Z,9.83
2023-03-18T01:26:23.408Z,10.10
2023-03-18T01:28:50.822Z,9.75
2023-03-18T01:31:19.722Z,9.65
2023-03-18T01:34:08.192Z,9.45
2023-03-18T01:36:37.819Z,9.83
2023-03-18T01:39:07.787Z,9.90
2023-03-18T01:41:36.905Z,10.15
2023-03-18T01:44:05.058Z,9.63
2023-03-18T01:46:41.865Z,9.78
2023-03-18T01:49:25.359Z,9.38
2023-03-18T01:51:59.539Z,9.50
2023-03-18T01:54:30.206Z,9.30
2023-03-18T01:57:14.702Z,9.73
2023-03-18T01:59:43.167Z,9.38
2023-03-18T02:02:13.530Z,8.18
2023-03-18T02:04:48.288Z,9.48
2023-03-18T02:07:21.495Z,9.35
2023-03-18T02:09:50.749Z,8.43
2023-03-18T02:12:25.294Z,8.88
2023-03-18T02:14:54.981Z,9.05
2023-03-18T02:17:26.130Z,9.38
2023-03-18T02:20:12.837Z,9.53
2023-03-18T02:22:44.248Z,8.98
2023-03-18T02:25:35.745Z,9.03
2023-03-18T02:28:05.960Z,9.00
2023-03-18T02:30:37.337Z,10.10
2023-03-18T02:33:07.332Z,9.35
2023-03-18T02:35:36.213Z,8.58
2023-03-18T02:38:05.356Z,8.73
2023-03-18T02:40:39.752Z,8.25
2023-03-18T02:43:25.962Z,8.65
2023-03-18T02:46:08.276Z,9.68
2023-03-18T02:48:39.576Z,9.10
2023-03-18T02:51:09.206Z,8.73
2023-03-18T02:53:38.026Z,8.50
2023-03-18T02:56:07.515Z,8.80
2023-03-18T02:58:35.876Z,8.95
2023-03-18T03:01:05.848Z,8.85
2023-03-18T03:03:35.422Z,9.15
2023-03-18T03:06:03.591Z,8.50
2023-03-18T03:08:32.020Z,9.03
2023-03-18T03:10:59.771Z,9.28
2023-03-18T03:13:29.795Z,9.05
2023-03-18T03:15:57.614Z,9.38
2023-03-18T03:18:26.693Z,9.08
2023-03-18T03:20:54.396Z,9.68
2023-03-18T03:23:22.018Z,9.15
2023-03-18T03:25:50.115Z,8.45
2023-03-18T03:28:17.670Z,9.05
2023-03-18T03:30:46.234Z,9.60
2023-03-18T03:33:14.011Z,8.55
2023-03-18T03:35:42.417Z,9.03
2023-03-18T03:38:10.054Z,9.48
2023-03-18T03:40:39.166Z,9.03
2023-03-18T03:43:09.422Z,9.48
2023-03-18T03:45:37.991Z,8.48
2023-03-18T03:48:06.524Z,9.08
2023-03-18T03:50:34.016Z,9.13
2023-03-18T03:53:02.768Z,9.75
2023-03-18T03:55:30.766Z,9.33
2023-03-18T03:57:58.307Z,9.20
2023-03-18T04:00:27.820Z,9.30
2023-03-18T04:02:55.434Z,9.73
2023-03-18T04:05:25.639Z,8.65
2023-03-18T04:07:53.876Z,9.73
2023-03-18T04:10:23.615Z,9.08
2023-03-18T04:12:51.108Z,9.20
2023-03-18T04:15:20.382Z,9.20
2023-03-18T04:17:50.459Z,9.38
2023-03-18T04:20:19.193Z,9.50
2023-03-18T04:22:47.594Z,9.60
2023-03-18T04:25:16.011Z,9.30
2023-03-18T04:27:47.036Z,10.15
2023-03-18T04:30:16.277Z,10.10
2023-03-18T04:32:48.658Z,10.18
2023-03-18T04:35:18.200Z,9.03
2023-03-18T04:37:46.167Z,9.05
2023-03-18T04:40:14.297Z,9.63
2023-03-18T04:42:41.809Z,9.88
2023-03-18T04:45:10.628Z,9.65
2023-03-18T04:47:57.821Z,10.48
2023-03-18T04:50:25.928Z,9.43
2023-03-18T04:55:40.822Z,8.98
2023-03-18T04:58:10.081Z,10.30
2023-03-18T05:00:40.685Z,9.23
2023-03-18T05:03:15.960Z,11.08
2023-03-18T05:05:45.144Z,9.93
2023-03-18T05:08:13.524Z,9.85
2023-03-18T05:10:41.952Z,10.25
2023-03-18T05:13:11.226Z,10.15
2023-03-18T05:15:52.760Z,9.88
2023-03-18T05:18:20.795Z,10.10
2023-03-18T05:20:50.313Z,9.78
2023-03-18T05:23:18.695Z,8.95
2023-03-18T05:25:54.123Z,9.65
2023-03-18T05:28:23.208Z,10.30
2023-03-18T05:30:56.117Z,10.32
2023-03-18T05:33:26.333Z,10.08
2023-03-18T05:35:56.082Z,10.15
2023-03-18T05:38:26.498Z,10.38
2023-03-18T05:40:54.192Z,10.50
2023-03-18T05:43:27.043Z,9.55
2023-03-18T05:45:58.757Z,9.30
2023-03-18T05:48:37.298Z,10.35
2023-03-18T05:51:06.995Z,9.18
2023-03-18T05:53:35.936Z,9.65
2023-03-18T05:56:06.070Z,9.90
2023-03-18T05:58:34.549Z,9.53
2023-03-18T06:01:11.518Z,9.85
2023-03-18T06:04:00.294Z,8.95
2023-03-18T06:06:28.522Z,9.60
2023-03-18T06:08:56.739Z,11.03
2023-03-18T06:11:25.178Z,11.25
2023-03-18T06:13:53.607Z,20.48
2023-03-18T06:16:23.594Z,20.50
2023-03-18T06:18:52.592Z,18.27
2023-03-18T06:21:20.709Z,12.75
2023-03-18T06:24:08.943Z,11.80
2023-03-18T06:26:37.451Z,11.28
2023-03-18T06:29:05.890Z,10.60
2023-03-18T06:31:35.026Z,10.63
2023-03-18T06:34:02.855Z,10.68
2023-03-18T06:36:33.832Z,11.70
2023-03-18T06:39:02.576Z,11.38
2023-03-18T06:41:45.242Z,11.30
2023-03-18T06:44:24.307Z,11.22
2023-03-18T06:46:56.530Z,11.48
2023-03-18T06:49:24.972Z,12.43
2023-03-18T06:51:55.021Z,12.70
2023-03-18T06:54:23.594Z,12.73
2023-03-18T06:56:51.997Z,13.43
2023-03-18T06:59:21.467Z,11.75
2023-03-18T07:01:51.032Z,11.80
2023-03-18T07:04:20.936Z,11.65
2023-03-18T07:06:49.189Z,10.45
2023-03-18T07:09:17.112Z,11.60
2023-03-18T07:11:47.436Z,12.10
2023-03-18T07:14:17.071Z,12.10
2023-03-18T07:16:58.312Z,12.40
2023-03-18T07:19:26.109Z,11.65
2023-03-18T07:21:53.916Z,11.57
2023-03-18T07:24:21.736Z,12.25
2023-03-18T07:26:53.826Z,12.15
2023-03-18T07:29:21.356Z,12.35
2023-03-18T07:31:49.563Z,13.20
2023-03-18T07:34:18.826Z,12.55
2023-03-18T07:36:46.495Z,13.08
2023-03-18T07:39:14.713Z,13.25
2023-03-18T07:41:42.294Z,12.00
2023-03-18T07:44:09.894Z,12.82
2023-03-18T07:46:39.681Z,12.73
2023-03-18T07:49:07.502Z,12.07
2023-03-18T07:51:35.729Z,14.47
2023-03-18T07:54:04.564Z,13.75
2023-03-18T07:56:31.882Z,13.35
2023-03-18T07:58:59.801Z,13.85
2023-03-18T08:01:27.906Z,13.88
2023-03-18T08:03:55.839Z,13.18
2023-03-18T08:06:24.330Z,12.95
2023-03-18T08:08:52.378Z,12.55
2023-03-18T08:11:19.834Z,11.60
2023-03-18T08:13:51.080Z,12.73
2023-03-18T08:16:19.178Z,12.82
2023-03-18T08:18:47.151Z,15.23
2023-03-18T08:21:15.621Z,13.98
2023-03-18T08:23:43.186Z,13.25
2023-03-18T08:26:11.914Z,13.18
2023-03-18T08:28:39.943Z,13.68
2023-03-18T08:31:16.565Z,14.15
2023-03-18T08:33:44.115Z,13.25
2023-03-18T08:36:12.337Z,13.40
2023-03-18T08:38:40.492Z,12.95
2023-03-18T08:41:17.168Z,13.78
2023-03-18T08:43:45.559Z,13.68
2023-03-18T08:46:14.040Z,13.38
2023-03-18T08:48:42.223Z,13.48
2023-03-18T08:51:09.628Z,12.85
2023-03-18T08:53:38.771Z,13.48
2023-03-18T08:56:12.819Z,13.58
2023-03-18T08:58:40.640Z,14.60
2023-03-18T09:01:10.775Z,13.62
2023-03-18T09:03:37.896Z,15.03
2023-03-18T09:06:06.196Z,15.13
2023-03-18T09:08:34.369Z,15.32
2023-03-18T09:11:03.224Z,15.95
2023-03-18T09:13:33.577Z,16.77
2023-03-18T09:16:01.114Z,15.30
2023-03-18T09:18:30.117Z,14.40
2023-03-18T09:20:57.552Z,15.58
2023-03-18T09:23:26.790Z,14.80
2023-03-18T09:25:55.131Z,14.68
2023-03-18T09:28:23.439Z,15.00
2023-03-18T09:30:51.475Z,15.05
2023-03-18T09:33:20.029Z,16.23
2023-03-18T09:35:48.824Z,15.35
2023-03-18T09:38:18.799Z,15.93
2023-03-18T09:40:51.366Z,14.33
2023-03-18T09:43:55.170Z,16.25
2023-03-18T09:46:26.413Z,14.28
2023-03-18T09:49:30.298Z,14.73
2023-03-18T09:52:21.551Z,13.18
2023-03-18T09:55:06.956Z,16.02
2023-03-18T09:57:37.707Z,15.28
2023-03-18T10:00:12.389Z,15.53
2023-03-18T10:02:50.397Z,15.20
2023-03-18T10:05:49.428Z,15.43
2023-03-18T10:08:26.947Z,14.95
2023-03-18T10:10:54.477Z,15.45
2023-03-18T10:13:28.926Z,15.60
2023-03-18T10:15:59.242Z,15.88
2023-03-18T10:18:35.854Z,16.02
2023-03-18T10:21:35.461Z,17.25
2023-03-18T10:24:07.817Z,16.10
2023-03-18T10:26:52.623Z,15.85
2023-03-18T10:29:44.827Z,17.60
2023-03-18T10:32:46.865Z,16.90
2023-03-18T10:35:33.789Z,16.50
2023-03-18T10:38:05.993Z,16.82
2023-03-18T10:40:39.025Z,16.65
2023-03-18T10:43:19.853Z,15.90
2023-03-18T10:45:50.971Z,17.23
2023-03-18T10:48:28.380Z,17.12
2023-03-18T10:51:19.695Z,18.55
2023-03-18T10:54:00.587Z,17.12
2023-03-18T10:56:28.834Z,18.50
2023-03-18T10:58:58.285Z,18.37
2023-03-18T11:01:29.896Z,18.55
2023-03-18T11:04:04.042Z,18.12
2023-03-18T11:06:47.562Z,19.63
2023-03-18T11:09:21.063Z,18.67
2023-03-18T11:11:51.200Z,18.73
2023-03-18T11:14:25.090Z,18.67
2023-03-18T11:17:03.160Z,17.98
2023-03-18T11:19:40.438Z,18.45
2023-03-18T11:22:28.401Z,18.70
2023-03-18T11:25:15.827Z,18.12
2023-03-18T11:27:46.907Z,19.27
2023-03-18T11:30:35.019Z,19.92
2023-03-18T11:33:09.252Z,19.50
2023-03-18T11:35:49.586Z,19.35
2023-03-18T11:38:29.646Z,20.52
2023-03-18T11:41:17.555Z,20.90
2023-03-18T11:44:00.523Z,20.35
2023-03-18T11:46:40.320Z,20.90
2023-03-18T11:49:11.800Z,51.23
2023-03-18T11:51:46.152Z,22.45
2023-03-18T11:54:23.625Z,20.97
2023-03-18T11:56:58.384Z,21.27
2023-03-18T11:59:54.071Z,21.25
2023-03-18T12:05:03.316Z,22.17
2023-03-18T12:08:02.655Z,23.45
2023-03-18T12:10:41.671Z,23.77
2023-03-18T12:13:28.260Z,24.35
2023-03-18T12:16:04.104Z,25.17
2023-03-18T12:18:51.140Z,23.05
2023-03-18T12:21:25.844Z,23.07
2023-03-18T12:24:09.411Z,22.55
2023-03-18T12:26:52.062Z,22.02
2023-03-18T12:30:00.146Z,22.62
2023-03-18T12:32:34.454Z,22.82
2023-03-18T12:35:16.038Z,22.80
2023-03-18T12:38:04.169Z,24.75
2023-03-18T12:40:48.253Z,22.77
2023-03-18T12:43:38.170Z,23.22
2023-03-18T12:46:28.059Z,22.60
2023-03-18T12:49:11.603Z,24.30
2023-03-18T12:52:02.028Z,23.02
2023-03-18T12:54:33.653Z,23.35
2023-03-18T12:57:06.467Z,23.20
2023-03-18T12:59:40.981Z,22.00
2023-03-18T13:02:32.821Z,25.52
2023-03-18T13:05:03.827Z,24.47
2023-03-18T13:07:38.601Z,22.07
2023-03-18T13:10:09.902Z,23.73
2023-03-18T13:12:44.030Z,23.15
2023-03-18T13:15:33.752Z,21.87
2023-03-18T13:18:09.134Z,22.70
2023-03-18T13:20:40.281Z,22.50
2023-03-18T13:23:30.302Z,21.62
2023-03-18T13:26:07.940Z,23.87
2023-03-18T13:28:45.753Z,23.22
2023-03-18T13:31:34.727Z,22.05
2023-03-18T13:34:29.654Z,24.63
2023-03-18T13:37:13.463Z,24.20
2023-03-18T13:40:00.131Z,23.25
2023-03-18T13:42:38.810Z,24.35
2023-03-18T13:45:20.225Z,21.97
2023-03-18T13:47:52.052Z,24.37
2023-03-18T13:50:23.770Z,23.95
2023-03-18T13:52:57.309Z,23.22
2023-03-18T13:55:35.224Z,22.42
2023-03-18T13:58:18.518Z,23.38
2023-03-18T14:00:59.327Z,23.87
2023-03-18T14:03:30.696Z,24.15
2023-03-18T14:06:19.850Z,24.57
2023-03-18T14:08:49.923Z,24.23
2023-03-18T14:11:23.284Z,23.50
2023-03-18T14:14:02.360Z,23.55
2023-03-18T14:16:33.287Z,23.52
2023-03-18T14:19:06.312Z,22.75
2023-03-18T14:21:35.077Z,24.15
2023-03-18T14:24:22.230Z,23.87
2023-03-18T14:27:05.320Z,24.63
2023-03-18T14:29:39.919Z,23.30
2023-03-18T14:32:28.564Z,23.02
2023-03-18T14:34:59.181Z,23.52
2023-03-18T14:37:33.061Z,23.35
2023-03-18T14:40:09.127Z,23.27
2023-03-18T14:42:53.794Z,23.73
2023-03-18T14:45:31.709Z,23.02
2023-03-18T14:48:02.134Z,23.65
2023-03-18T14:50:36.948Z,22.75
2023-03-18T14:53:14.086Z,23.77
2023-03-18T14:55:44.296Z,25.57
2023-03-18T14:58:17.806Z,22.02
2023-03-18T15:00:49.098Z,23.30
2023-03-18T15:03:28.984Z,23.47
2023-03-18T15:05:59.571Z,24.20
2023-03-18T15:08:44.837Z,22.02
2023-03-18T15:11:00.716Z,23.07
2023-03-18T15:13:28.582Z,22.10
2023-03-18T15:15:57.328Z,21.82
2023-03-18T15:18:36.048Z,23.27
2023-03-18T15:21:07.474Z,24.65
2023-03-18T15:23:48.398Z,23.40
2023-03-18T15:26:23.604Z,22.60
2023-03-18T15:28:57.403Z,22.15
2023-03-18T15:31:31.376Z,23.25
2023-03-18T15:34:08.743Z,22.50
2023-03-18T15:36:43.735Z,23.70
2023-03-18T15:39:35.812Z,23.30
2023-03-18T15:42:07.090Z,23.67
2023-03-18T15:44:40.475Z,24.55
2023-03-18T15:47:17.683Z,25.12
2023-03-18T15:50:00.661Z,25.17
2023-03-18T15:52:34.718Z,24.60
2023-03-18T15:55:04.683Z,24.77
2023-03-18T15:57:40.218Z,26.05
2023-03-18T16:00:10.172Z,24.95
2023-03-18T16:02:40.573Z,24.43
2023-03-18T16:05:26.453Z,25.02
2023-03-18T16:07:55.836Z,25.25
2023-03-18T16:10:25.986Z,24.57
2023-03-18T16:12:59.621Z,24.43
2023-03-18T16:15:28.381Z,25.10
2023-03-18T16:17:57.532Z,24.65
2023-03-18T16:20:30.696Z,24.07
2023-03-18T16:23:00.126Z,22.48
2023-03-18T16:25:28.453Z,24.50
2023-03-18T16:27:59.269Z,25.20
2023-03-18T16:30:30.249Z,23.50
2023-03-18T16:32:59.073Z,23.75
2023-03-18T16:35:31.154Z,23.80
2023-03-18T16:38:00.599Z,24.30
2023-03-18T16:40:31.231Z,24.80
2023-03-18T16:42:59.304Z,25.40
2023-03-18T16:45:32.773Z,24.30
2023-03-18T16:48:03.308Z,24.57
2023-03-18T16:50:39.508Z,23.52
2023-03-18T16:53:26.622Z,23.90
2023-03-18T16:56:01.022Z,23.45
2023-03-18T16:58:36.987Z,22.17
2023-03-18T17:01:07.532Z,23.35
2023-03-18T17:03:35.974Z,24.77
2023-03-18T17:06:03.719Z,23.98
2023-03-18T17:08:31.307Z,24.35
2023-03-18T17:11:02.395Z,27.80
2023-03-18T17:13:33.208Z,27.62
2023-03-18T17:16:02.112Z,26.35
2023-03-18T17:18:30.445Z,26.12
2023-03-18T17:20:58.280Z,24.92
2023-03-18T17:23:27.819Z,26.10
2023-03-18T17:25:59.462Z,25.05
2023-03-18T17:28:36.880Z,25.57
2023-03-18T17:31:06.328Z,25.52
2023-03-18T17:33:36.250Z,27.60
2023-03-18T17:36:06.394Z,26.20
2023-03-18T17:38:37.409Z,25.97
2023-03-18T17:41:18.057Z,26.80
2023-03-18T17:43:47.533Z,26.12
2023-03-18T17:46:27.769Z,25.55
2023-03-18T17:48:56.046Z,25.35
2023-03-18T17:51:25.118Z,25.50
2023-03-18T17:54:00.778Z,23.95
2023-03-18T17:56:29.194Z,24.55
2023-03-18T17:58:56.806Z,25.08
2023-03-18T18:01:29.533Z,24.27
2023-03-18T18:03:59.246Z,23.90
2023-03-18T18:06:31.470Z,25.37
2023-03-18T18:09:00.809Z,25.48
2023-03-18T18:11:31.363Z,25.17
2023-03-18T18:14:04.986Z,25.27
2023-03-18T18:16:32.980Z,24.25
2023-03-18T18:19:01.864Z,24.27
2023-03-18T18:21:30.097Z,25.02
2023-03-18T18:23:58.741Z,25.15
2023-03-18T18:26:26.749Z,24.70
2023-03-18T18:28:54.875Z,26.82
2023-03-18T18:31:24.300Z,25.57
2023-03-18T18:33:52.691Z,24.95
2023-03-18T18:36:20.474Z,24.30
2023-03-18T18:38:48.033Z,25.57
2023-03-18T18:41:15.994Z,25.00
2023-03-18T18:43:43.789Z,25.05
2023-03-18T18:46:16.564Z,24.23
2023-03-18T18:48:46.916Z,24.67
2023-03-18T18:51:21.888Z,25.17
2023-03-18T18:53:52.676Z,29.87
2023-03-18T18:56:31.744Z,24.37
2023-03-18T18:58:59.541Z,24.57
2023-03-18T19:01:27.751Z,26.68
2023-03-18T19:04:16.017Z,25.35
2023-03-18T19:06:45.283Z,25.75
2023-03-18T19:09:19.083Z,26.40
2023-03-18T19:11:47.517Z,25.95
2023-03-18T19:14:38.149Z,25.45
2023-03-18T19:17:05.597Z,24.10
2023-03-18T19:19:35.111Z,24.80
2023-03-18T19:22:03.950Z,24.72
2023-03-18T19:24:36.367Z,23.57
2023-03-18T19:27:25.191Z,22.90
2023-03-18T19:29:54.909Z,23.07
2023-03-18T19:32:24.058Z,22.55
2023-03-18T19:34:53.220Z,21.73
2023-03-18T19:37:24.644Z,21.12
2023-03-18T19:39:52.537Z,21.20
2023-03-18T19:42:20.379Z,22.10
2023-03-18T19:44:49.094Z,22.65
2023-03-18T19:47:25.550Z,22.52
2023-03-18T19:49:53.931Z,21.57
2023-03-18T19:52:24.853Z,20.80
2023-03-18T19:54:55.314Z,20.40
2023-03-18T19:57:27.631Z,21.77
2023-03-18T19:59:57.913Z,19.95
2023-03-18T20:02:32.187Z,20.85
2023-03-18T20:05:02.804Z,20.90
2023-03-18T20:07:32.980Z,20.37
2023-03-18T20:10:00.947Z,45.90
2023-03-18T20:12:40.038Z,42.78
2023-03-18T20:15:21.569Z,21.65
2023-03-18T20:17:51.189Z,16.73
2023-03-18T20:20:28.993Z,14.83
2023-03-18T20:23:06.640Z,16.15
2023-03-18T20:25:43.465Z,15.25
2023-03-18T20:28:17.620Z,13.68
2023-03-18T20:30:50.902Z,13.50
2023-03-18T20:33:22.477Z,13.90
2023-03-18T20:35:53.314Z,14.60
2023-03-18T20:38:30.141Z,15.32
2023-03-18T20:41:07.010Z,15.23
2023-03-18T20:43:35.925Z,14.55
2023-03-18T20:46:03.885Z,14.95
2023-03-18T20:48:31.690Z,16.50
2023-03-18T20:50:59.053Z,16.02
2023-03-18T20:53:30.191Z,16.50
2023-03-18T20:55:58.056Z,14.10
2023-03-18T20:58:28.736Z,12.95
2023-03-18T21:00:59.881Z,13.85
2023-03-18T21:03:30.328Z,12.53
2023-03-18T21:06:00.509Z,13.22
2023-03-18T21:08:29.023Z,13.22
2023-03-18T21:11:01.372Z,13.50
2023-03-18T21:13:38.641Z,13.68
2023-03-18T21:16:10.803Z,14.53
2023-03-18T21:18:41.346Z,15.10
2023-03-18T21:21:21.881Z,15.13
2023-03-18T21:23:50.314Z,14.50
2023-03-18T21:26:17.723Z,15.90
2023-03-18T21:28:45.730Z,16.15
2023-03-18T21:31:23.173Z,15.30
2023-03-18T21:33:51.745Z,15.53
2023-03-18T21:36:19.505Z,16.77
2023-03-18T21:38:47.224Z,14.53
2023-03-18T21:41:24.592Z,14.87
2023-03-18T21:43:52.249Z,15.78
2023-03-18T21:46:22.664Z,14.83
2023-03-18T21:48:55.384Z,15.50
2023-03-18T21:51:38.734Z,14.78
2023-03-18T21:53:59.421Z,13.58
2023-03-18T21:56:27.544Z,13.80
2023-03-18T21:58:56.327Z,13.60
2023-03-18T22:01:27.916Z,12.25
2023-03-18T22:03:55.535Z,13.40
2023-03-18T22:06:23.112Z,13.80
2023-03-18T22:08:50.496Z,13.38
2023-03-18T22:11:20.763Z,15.05
2023-03-18T22:13:50.560Z,16.50
2023-03-18T22:16:19.076Z,16.55
2023-03-18T22:18:47.706Z,15.08
2023-03-18T22:21:22.001Z,14.65
2023-03-18T22:23:53.268Z,14.83
2023-03-18T22:26:22.323Z,15.13
2023-03-18T22:28:50.865Z,16.37
2023-03-18T22:31:21.961Z,15.45
2023-03-18T22:33:49.874Z,14.63
2023-03-18T22:36:19.217Z,14.98
2023-03-18T22:38:56.467Z,15.23
2023-03-18T22:41:29.215Z,15.43
2023-03-18T22:44:00.502Z,15.15
2023-03-18T22:46:28.660Z,14.15
2023-03-18T22:48:56.520Z,14.93
2023-03-18T22:51:27.940Z,13.68
2023-03-18T22:53:55.958Z,15.35
2023-03-18T22:56:26.945Z,16.20
2023-03-18T22:58:55.233Z,16.00
2023-03-18T23:01:26.905Z,17.40
2023-03-18T23:03:55.038Z,18.05
2023-03-18T23:06:27.498Z,16.65
2023-03-18T23:08:55.083Z,18.07
2023-03-18T23:11:24.057Z,17.73
2023-03-18T23:13:52.352Z,16.75
2023-03-18T23:16:22.534Z,16.42
2023-03-18T23:18:51.664Z,14.95
2023-03-18T23:21:25.114Z,16.10
2023-03-18T23:23:53.348Z,17.10
2023-03-18T23:26:21.257Z,17.20
2023-03-18T23:28:50.821Z,17.55
2023-03-18T23:31:18.616Z,18.23
2023-03-18T23:33:47.442Z,18.55
2023-03-18T23:36:15.420Z,19.00
2023-03-18T23:38:42.790Z,20.02
2023-03-18T23:41:10.388Z,19.60
2023-03-18T23:43:38.972Z,20.02
2023-03-18T23:46:08.895Z,21.23
2023-03-18T23:48:37.153Z,21.23
2023-03-18T23:51:05.142Z,20.85
2023-03-18T23:53:33.260Z,20.50
2023-03-18T23:56:01.228Z,20.62
2023-03-18T23:58:29.105Z,20.00
